sensor_id;sensor_type;location;lat;lon;timestamp;temperature;humidity
4584;DHT22;2304;47.606;12.186;2024-01-15T00:04:42;-0.90;71.80
4584;DHT22;2304;47.606;12.186;2024-01-15T00:09:44;-0.80;71.20
4584;DHT22;2304;47.606;12.186;2024-01-15T00:14:46;-0.60;70.90
4584;DHT22;2304;47.606;12.186;2024-01-15T00:19:49;-0.60;70.20
4584;DHT22;2304;47.606;12.186;2024-01-15T00:24:51;-0.50;70.00
4584;DHT22;2304;47.606;12.186;2024-01-15T00:29:53;-0.50;69.50
4584;DHT22;2304;47.606;12.186;2024-01-15T00:34:57;-0.50;69.50
4584;DHT22;2304;47.606;12.186;2024-01-15T00:39:58;-0.40;69.20
4584;DHT22;2304;47.606;12.186;2024-01-15T00:45:00;-0.40;69.10
4584;DHT22;2304;47.606;12.186;2024-01-15T00:50:04;-0.30;69.40
4584;DHT22;2304;47.606;12.186;2024-01-15T00:55:07;-0.20;69.20
4584;DHT22;2304;47.606;12.186;2024-01-15T01:00:09;-0.10;68.80
4584;DHT22;2304;47.606;12.186;2024-01-15T01:05:13;-0.10;68.30
4584;DHT22;2304;47.606;12.186;2024-01-15T01:10:15;-0.20;69.40
4584;DHT22;2304;47.606;12.186;2024-01-15T01:15:17;-0.10;69.80
4584;DHT22;2304;47.606;12.186;2024-01-15T01:20:20;-0.10;69.60
4584;DHT22;2304;47.606;12.186;2024-01-15T01:25:22;-0.20;70.10
4584;DHT22;2304;47.606;12.186;2024-01-15T01:30:24;-0.10;69.60
4584;DHT22;2304;47.606;12.186;2024-01-15T01:35:27;0.00;69.50
4584;DHT22;2304;47.606;12.186;2024-01-15T01:40:29;0.00;69.50
4584;DHT22;2304;47.606;12.186;2024-01-15T01:45:31;0.10;69.60
4584;DHT22;2304;47.606;12.186;2024-01-15T01:50:34;0.10;69.00
4584;DHT22;2304;47.606;12.186;2024-01-15T01:55:36;0.10;69.10
4584;DHT22;2304;47.606;12.186;2024-01-15T02:00:40;0.20;68.90
4584;DHT22;2304;47.606;12.186;2024-01-15T02:05:44;0.20;68.70
4584;DHT22;2304;47.606;12.186;2024-01-15T02:10:46;0.20;68.80
4584;DHT22;2304;47.606;12.186;2024-01-15T02:15:48;0.20;68.50
4584;DHT22;2304;47.606;12.186;2024-01-15T02:20:51;0.20;68.80
4584;DHT22;2304;47.606;12.186;2024-01-15T02:25:54;0.30;69.00
4584;DHT22;2304;47.606;12.186;2024-01-15T02:30:56;0.50;69.10
4584;DHT22;2304;47.606;12.186;2024-01-15T02:35:58;0.30;69.10
4584;DHT22;2304;47.606;12.186;2024-01-15T02:41:01;0.30;69.40
4584;DHT22;2304;47.606;12.186;2024-01-15T02:46:03;0.20;69.70
4584;DHT22;2304;47.606;12.186;2024-01-15T02:51:05;0.20;69.90
4584;DHT22;2304;47.606;12.186;2024-01-15T02:56:08;0.20;70.40
4584;DHT22;2304;47.606;12.186;2024-01-15T03:01:10;0.20;70.60
4584;DHT22;2304;47.606;12.186;2024-01-15T03:06:14;0.10;70.90
4584;DHT22;2304;47.606;12.186;2024-01-15T03:11:17;0.20;71.20
4584;DHT22;2304;47.606;12.186;2024-01-15T03:16:20;0.40;71.50
4584;DHT22;2304;47.606;12.186;2024-01-15T03:21:22;0.30;71.70
4584;DHT22;2304;47.606;12.186;2024-01-15T03:26:25;0.30;72.00
4584;DHT22;2304;47.606;12.186;2024-01-15T03:31:27;0.30;72.70
4584;DHT22;2304;47.606;12.186;2024-01-15T03:36:29;0.40;75.10
4584;DHT22;2304;47.606;12.186;2024-01-15T03:41:32;0.50;79.10
4584;DHT22;2304;47.606;12.186;2024-01-15T03:46:34;0.60;79.90
4584;DHT22;2304;47.606;12.186;2024-01-15T03:51:36;0.80;81.10
4584;DHT22;2304;47.606;12.186;2024-01-15T03:56:40;0.90;82.50
4584;DHT22;2304;47.606;12.186;2024-01-15T04:01:48;1.00;82.40
4584;DHT22;2304;47.606;12.186;2024-01-15T04:06:50;1.10;81.70
4584;DHT22;2304;47.606;12.186;2024-01-15T04:11:53;1.20;81.70
4584;DHT22;2304;47.606;12.186;2024-01-15T04:16:55;1.30;80.90
4584;DHT22;2304;47.606;12.186;2024-01-15T04:21:57;1.40;79.80
4584;DHT22;2304;47.606;12.186;2024-01-15T04:27:00;1.30;78.50
4584;DHT22;2304;47.606;12.186;2024-01-15T04:32:02;1.30;78.00
4584;DHT22;2304;47.606;12.186;2024-01-15T04:37:04;1.30;77.80
4584;DHT22;2304;47.606;12.186;2024-01-15T04:42:07;1.30;76.80
4584;DHT22;2304;47.606;12.186;2024-01-15T04:47:09;1.30;75.80
4584;DHT22;2304;47.606;12.186;2024-01-15T04:52:11;1.30;74.90
4584;DHT22;2304;47.606;12.186;2024-01-15T04:57:14;1.40;74.40
4584;DHT22;2304;47.606;12.186;2024-01-15T05:02:16;1.40;73.40
4584;DHT22;2304;47.606;12.186;2024-01-15T05:07:18;1.40;72.60
4584;DHT22;2304;47.606;12.186;2024-01-15T05:22:42;1.60;71.00
4584;DHT22;2304;47.606;12.186;2024-01-15T05:27:44;1.50;70.10
4584;DHT22;2304;47.606;12.186;2024-01-15T05:32:46;1.60;68.40
4584;DHT22;2304;47.606;12.186;2024-01-15T05:37:49;1.50;67.80
4584;DHT22;2304;47.606;12.186;2024-01-15T05:42:51;1.60;67.50
4584;DHT22;2304;47.606;12.186;2024-01-15T05:47:53;1.70;67.00
4584;DHT22;2304;47.606;12.186;2024-01-15T05:52:56;1.70;66.70
4584;DHT22;2304;47.606;12.186;2024-01-15T05:57:58;1.70;65.90
4584;DHT22;2304;47.606;12.186;2024-01-15T06:03:00;1.60;64.30
4584;DHT22;2304;47.606;12.186;2024-01-15T06:08:03;1.70;64.80
4584;DHT22;2304;47.606;12.186;2024-01-15T06:13:05;1.80;64.90
4584;DHT22;2304;47.606;12.186;2024-01-15T06:18:07;1.70;64.20
4584;DHT22;2304;47.606;12.186;2024-01-15T06:23:10;1.70;62.50
4584;DHT22;2304;47.606;12.186;2024-01-15T06:28:12;1.70;62.70
4584;DHT22;2304;47.606;12.186;2024-01-15T06:33:14;1.70;62.00
4584;DHT22;2304;47.606;12.186;2024-01-15T06:38:17;1.70;62.70
4584;DHT22;2304;47.606;12.186;2024-01-15T06:43:19;1.70;61.70
4584;DHT22;2304;47.606;12.186;2024-01-15T06:48:24;1.60;60.90
4584;DHT22;2304;47.606;12.186;2024-01-15T06:53:27;1.50;61.60
4584;DHT22;2304;47.606;12.186;2024-01-15T06:58:31;1.60;61.90
4584;DHT22;2304;47.606;12.186;2024-01-15T07:03:33;1.60;62.30
4584;DHT22;2304;47.606;12.186;2024-01-15T07:08:36;1.70;62.50
4584;DHT22;2304;47.606;12.186;2024-01-15T07:18:41;1.70;62.40
4584;DHT22;2304;47.606;12.186;2024-01-15T07:23:45;1.60;62.30
4584;DHT22;2304;47.606;12.186;2024-01-15T07:28:47;1.60;62.90
4584;DHT22;2304;47.606;12.186;2024-01-15T07:33:48;1.50;62.60
4584;DHT22;2304;47.606;12.186;2024-01-15T07:38:52;1.50;62.70
4584;DHT22;2304;47.606;12.186;2024-01-15T07:43:53;1.60;63.10
4584;DHT22;2304;47.606;12.186;2024-01-15T07:48:55;1.60;62.70
4584;DHT22;2304;47.606;12.186;2024-01-15T07:53:59;1.70;63.00
4584;DHT22;2304;47.606;12.186;2024-01-15T07:59:01;1.80;62.60
4584;DHT22;2304;47.606;12.186;2024-01-15T08:04:03;1.80;61.90
4584;DHT22;2304;47.606;12.186;2024-01-15T08:09:06;1.90;61.60
4584;DHT22;2304;47.606;12.186;2024-01-15T08:14:09;1.90;61.90
4584;DHT22;2304;47.606;12.186;2024-01-15T08:19:12;2.00;61.90
4584;DHT22;2304;47.606;12.186;2024-01-15T08:24:16;2.20;62.90
4584;DHT22;2304;47.606;12.186;2024-01-15T08:29:18;2.30;61.60
4584;DHT22;2304;47.606;12.186;2024-01-15T08:34:21;2.30;60.80
4584;DHT22;2304;47.606;12.186;2024-01-15T08:39:24;2.30;60.70
4584;DHT22;2304;47.606;12.186;2024-01-15T08:44:26;2.40;60.70
4584;DHT22;2304;47.606;12.186;2024-01-15T08:49:28;2.50;60.70
4584;DHT22;2304;47.606;12.186;2024-01-15T08:54:31;2.40;60.50
4584;DHT22;2304;47.606;12.186;2024-01-15T08:59:33;2.40;61.30
4584;DHT22;2304;47.606;12.186;2024-01-15T09:04:35;2.50;61.60
4584;DHT22;2304;47.606;12.186;2024-01-15T09:09:38;2.50;62.20
4584;DHT22;2304;47.606;12.186;2024-01-15T09:14:40;2.40;61.50
4584;DHT22;2304;47.606;12.186;2024-01-15T09:19:41;2.50;61.90
4584;DHT22;2304;47.606;12.186;2024-01-15T09:24:45;2.60;62.00
4584;DHT22;2304;47.606;12.186;2024-01-15T09:29:47;2.60;61.80
4584;DHT22;2304;47.606;12.186;2024-01-15T09:34:49;2.70;62.50
4584;DHT22;2304;47.606;12.186;2024-01-15T09:39:52;2.70;62.60
4584;DHT22;2304;47.606;12.186;2024-01-15T09:44:56;2.70;63.50
4584;DHT22;2304;47.606;12.186;2024-01-15T09:49:58;2.80;63.30
4584;DHT22;2304;47.606;12.186;2024-01-15T09:55:03;2.80;63.30
4584;DHT22;2304;47.606;12.186;2024-01-15T10:00:07;2.90;63.30
4584;DHT22;2304;47.606;12.186;2024-01-15T10:05:11;2.90;63.80
4584;DHT22;2304;47.606;12.186;2024-01-15T10:10:14;2.90;64.30
4584;DHT22;2304;47.606;12.186;2024-01-15T10:15:16;3.00;64.40
4584;DHT22;2304;47.606;12.186;2024-01-15T10:20:18;3.20;64.20
4584;DHT22;2304;47.606;12.186;2024-01-15T10:25:21;3.20;64.20
4584;DHT22;2304;47.606;12.186;2024-01-15T10:30:26;3.10;64.50
4584;DHT22;2304;47.606;12.186;2024-01-15T10:35:29;3.20;65.00
4584;DHT22;2304;47.606;12.186;2024-01-15T10:40:33;3.20;65.00
4584;DHT22;2304;47.606;12.186;2024-01-15T10:45:34;3.20;65.00
4584;DHT22;2304;47.606;12.186;2024-01-15T10:50:36;3.30;65.30
4584;DHT22;2304;47.606;12.186;2024-01-15T10:55:41;3.30;65.60
4584;DHT22;2304;47.606;12.186;2024-01-15T11:00:44;3.20;66.60
4584;DHT22;2304;47.606;12.186;2024-01-15T11:05:46;3.10;67.20
4584;DHT22;2304;47.606;12.186;2024-01-15T11:10:51;3.20;67.10
4584;DHT22;2304;47.606;12.186;2024-01-15T11:16:00;3.40;68.10
4584;DHT22;2304;47.606;12.186;2024-01-15T11:21:25;3.20;67.50
4584;DHT22;2304;47.606;12.186;2024-01-15T11:26:34;3.30;68.30
4584;DHT22;2304;47.606;12.186;2024-01-15T11:31:59;3.30;67.20
4584;DHT22;2304;47.606;12.186;2024-01-15T11:37:05;3.20;67.40
4584;DHT22;2304;47.606;12.186;2024-01-15T11:42:08;3.20;67.80
4584;DHT22;2304;47.606;12.186;2024-01-15T11:47:12;3.30;67.80
4584;DHT22;2304;47.606;12.186;2024-01-15T11:52:16;3.20;67.50
4584;DHT22;2304;47.606;12.186;2024-01-15T11:57:25;3.30;68.00
4584;DHT22;2304;47.606;12.186;2024-01-15T12:02:31;3.40;68.30
4584;DHT22;2304;47.606;12.186;2024-01-15T12:07:33;3.50;67.90
4584;DHT22;2304;47.606;12.186;2024-01-15T12:12:44;3.50;67.70
4584;DHT22;2304;47.606;12.186;2024-01-15T12:17:48;3.50;67.60
4584;DHT22;2304;47.606;12.186;2024-01-15T12:22:50;3.60;67.30
4584;DHT22;2304;47.606;12.186;2024-01-15T12:27:54;3.50;67.40
4584;DHT22;2304;47.606;12.186;2024-01-15T12:32:56;3.40;67.60
4584;DHT22;2304;47.606;12.186;2024-01-15T12:37:59;3.40;67.60
4584;DHT22;2304;47.606;12.186;2024-01-15T12:43:05;3.40;67.30
4584;DHT22;2304;47.606;12.186;2024-01-15T12:48:08;3.40;67.40
4584;DHT22;2304;47.606;12.186;2024-01-15T12:53:10;3.30;67.50
4584;DHT22;2304;47.606;12.186;2024-01-15T12:58:13;3.20;67.80
4584;DHT22;2304;47.606;12.186;2024-01-15T13:03:15;3.20;67.60
4584;DHT22;2304;47.606;12.186;2024-01-15T13:08:17;3.20;67.60
4584;DHT22;2304;47.606;12.186;2024-01-15T13:13:20;3.10;67.70
4584;DHT22;2304;47.606;12.186;2024-01-15T13:18:22;3.00;68.00
4584;DHT22;2304;47.606;12.186;2024-01-15T13:23:24;3.10;68.60
4584;DHT22;2304;47.606;12.186;2024-01-15T13:28:27;3.00;68.90
4584;DHT22;2304;47.606;12.186;2024-01-15T13:33:29;3.00;69.00
4584;DHT22;2304;47.606;12.186;2024-01-15T13:38:31;3.10;69.20
4584;DHT22;2304;47.606;12.186;2024-01-15T13:43:38;3.10;69.60
4584;DHT22;2304;47.606;12.186;2024-01-15T13:48:40;3.20;69.40
4584;DHT22;2304;47.606;12.186;2024-01-15T13:53:42;3.20;69.00
4584;DHT22;2304;47.606;12.186;2024-01-15T13:58:45;3.20;68.90
4584;DHT22;2304;47.606;12.186;2024-01-15T14:03:48;3.20;69.20
4584;DHT22;2304;47.606;12.186;2024-01-15T14:08:50;3.20;69.50
4584;DHT22;2304;47.606;12.186;2024-01-15T14:13:54;3.20;69.60
4584;DHT22;2304;47.606;12.186;2024-01-15T14:18:55;3.20;69.70
4584;DHT22;2304;47.606;12.186;2024-01-15T14:23:57;3.20;70.10
4584;DHT22;2304;47.606;12.186;2024-01-15T14:29:00;3.20;70.60
4584;DHT22;2304;47.606;12.186;2024-01-15T14:34:02;3.10;69.00
4584;DHT22;2304;47.606;12.186;2024-01-15T14:39:04;3.10;69.10
4584;DHT22;2304;47.606;12.186;2024-01-15T14:44:07;3.00;68.80
4584;DHT22;2304;47.606;12.186;2024-01-15T14:49:09;3.00;69.80
4584;DHT22;2304;47.606;12.186;2024-01-15T14:54:11;3.00;69.70
4584;DHT22;2304;47.606;12.186;2024-01-15T14:59:14;2.90;70.20
4584;DHT22;2304;47.606;12.186;2024-01-15T15:04:16;2.80;70.60
4584;DHT22;2304;47.606;12.186;2024-01-15T15:09:18;2.70;71.00
4584;DHT22;2304;47.606;12.186;2024-01-15T15:14:21;2.60;71.60
4584;DHT22;2304;47.606;12.186;2024-01-15T15:19:23;2.60;71.70
4584;DHT22;2304;47.606;12.186;2024-01-15T15:24:25;2.70;71.90
4584;DHT22;2304;47.606;12.186;2024-01-15T15:29:28;2.70;71.60
4584;DHT22;2304;47.606;12.186;2024-01-15T15:34:30;2.70;71.40
4584;DHT22;2304;47.606;12.186;2024-01-15T15:39:32;2.70;71.00
4584;DHT22;2304;47.606;12.186;2024-01-15T15:44:35;2.70;71.50
4584;DHT22;2304;47.606;12.186;2024-01-15T15:49:38;2.80;71.00
4584;DHT22;2304;47.606;12.186;2024-01-15T15:54:40;2.70;70.80
4584;DHT22;2304;47.606;12.186;2024-01-15T15:59:43;2.70;71.10
4584;DHT22;2304;47.606;12.186;2024-01-15T16:04:59;2.80;71.30
4584;DHT22;2304;47.606;12.186;2024-01-15T16:10:04;2.80;70.90
4584;DHT22;2304;47.606;12.186;2024-01-15T16:15:17;2.80;70.90
4584;DHT22;2304;47.606;12.186;2024-01-15T16:20:20;2.80;71.30
4584;DHT22;2304;47.606;12.186;2024-01-15T16:31:10;2.80;71.50
4584;DHT22;2304;47.606;12.186;2024-01-15T16:36:12;2.80;72.40
4584;DHT22;2304;47.606;12.186;2024-01-15T16:41:14;2.80;72.50
4584;DHT22;2304;47.606;12.186;2024-01-15T16:46:17;2.80;73.50
4584;DHT22;2304;47.606;12.186;2024-01-15T16:51:19;2.80;73.20
4584;DHT22;2304;47.606;12.186;2024-01-15T16:56:21;2.70;73.80
4584;DHT22;2304;47.606;12.186;2024-01-15T17:01:24;2.70;74.10
4584;DHT22;2304;47.606;12.186;2024-01-15T17:06:26;2.70;73.90
4584;DHT22;2304;47.606;12.186;2024-01-15T17:11:28;2.70;74.10
4584;DHT22;2304;47.606;12.186;2024-01-15T17:16:31;2.70;74.20
4584;DHT22;2304;47.606;12.186;2024-01-15T17:21:34;2.60;74.50
4584;DHT22;2304;47.606;12.186;2024-01-15T17:26:35;2.70;74.20
4584;DHT22;2304;47.606;12.186;2024-01-15T17:31:39;2.70;74.10
4584;DHT22;2304;47.606;12.186;2024-01-15T17:36:40;2.70;74.80
4584;DHT22;2304;47.606;12.186;2024-01-15T17:41:42;2.70;74.50
4584;DHT22;2304;47.606;12.186;2024-01-15T17:46:45;2.70;74.30
4584;DHT22;2304;47.606;12.186;2024-01-15T17:51:47;2.70;74.50
4584;DHT22;2304;47.606;12.186;2024-01-15T17:56:49;2.70;76.20
4584;DHT22;2304;47.606;12.186;2024-01-15T18:01:52;2.90;75.90
4584;DHT22;2304;47.606;12.186;2024-01-15T18:06:55;2.70;75.90
4584;DHT22;2304;47.606;12.186;2024-01-15T18:11:57;2.70;76.30
4584;DHT22;2304;47.606;12.186;2024-01-15T18:17:03;2.70;76.00
4584;DHT22;2304;47.606;12.186;2024-01-15T18:22:05;2.70;76.00
4584;DHT22;2304;47.606;12.186;2024-01-15T18:27:07;2.70;76.10
4584;DHT22;2304;47.606;12.186;2024-01-15T18:32:10;2.60;75.00
4584;DHT22;2304;47.606;12.186;2024-01-15T18:37:12;2.60;74.80
4584;DHT22;2304;47.606;12.186;2024-01-15T18:42:15;2.60;74.20
4584;DHT22;2304;47.606;12.186;2024-01-15T18:47:18;2.70;74.00
4584;DHT22;2304;47.606;12.186;2024-01-15T18:52:20;2.70;73.80
4584;DHT22;2304;47.606;12.186;2024-01-15T18:57:22;2.60;73.30
4584;DHT22;2304;47.606;12.186;2024-01-15T19:02:25;2.70;73.60
4584;DHT22;2304;47.606;12.186;2024-01-15T19:07:27;2.60;69.40
4584;DHT22;2304;47.606;12.186;2024-01-15T19:12:29;2.60;66.70
4584;DHT22;2304;47.606;12.186;2024-01-15T19:17:32;2.60;64.70
4584;DHT22;2304;47.606;12.186;2024-01-15T19:22:34;2.60;65.40
4584;DHT22;2304;47.606;12.186;2024-01-15T19:27:36;2.50;61.60
4584;DHT22;2304;47.606;12.186;2024-01-15T19:32:45;2.50;62.10
4584;DHT22;2304;47.606;12.186;2024-01-15T19:37:46;2.50;61.00
4584;DHT22;2304;47.606;12.186;2024-01-15T19:42:48;2.60;61.00
4584;DHT22;2304;47.606;12.186;2024-01-15T19:47:52;2.60;60.80
4584;DHT22;2304;47.606;12.186;2024-01-15T19:52:54;2.50;60.40
4584;DHT22;2304;47.606;12.186;2024-01-15T19:57:56;2.40;62.90
4584;DHT22;2304;47.606;12.186;2024-01-15T20:02:59;2.30;65.00
4584;DHT22;2304;47.606;12.186;2024-01-15T20:08:02;2.10;66.20
4584;DHT22;2304;47.606;12.186;2024-01-15T20:13:04;2.10;66.90
4584;DHT22;2304;47.606;12.186;2024-01-15T20:18:07;2.00;67.60
4584;DHT22;2304;47.606;12.186;2024-01-15T20:23:09;1.90;68.50
4584;DHT22;2304;47.606;12.186;2024-01-15T20:28:11;1.90;68.90
4584;DHT22;2304;47.606;12.186;2024-01-15T20:33:14;1.90;69.20
4584;DHT22;2304;47.606;12.186;2024-01-15T20:38:16;1.80;69.50
4584;DHT22;2304;47.606;12.186;2024-01-15T20:43:18;1.80;70.10
4584;DHT22;2304;47.606;12.186;2024-01-15T20:48:21;1.80;70.70
4584;DHT22;2304;47.606;12.186;2024-01-15T20:53:23;1.80;71.00
4584;DHT22;2304;47.606;12.186;2024-01-15T20:58:25;1.60;70.50
4584;DHT22;2304;47.606;12.186;2024-01-15T21:03:29;1.70;69.70
4584;DHT22;2304;47.606;12.186;2024-01-15T21:08:31;1.60;68.70
4584;DHT22;2304;47.606;12.186;2024-01-15T21:13:33;1.70;68.50
4584;DHT22;2304;47.606;12.186;2024-01-15T21:18:36;1.60;67.50
4584;DHT22;2304;47.606;12.186;2024-01-15T21:23:38;1.60;67.30
4584;DHT22;2304;47.606;12.186;2024-01-15T21:28:41;1.60;66.00
4584;DHT22;2304;47.606;12.186;2024-01-15T21:33:44;1.60;65.40
4584;DHT22;2304;47.606;12.186;2024-01-15T21:38:46;1.50;64.30
4584;DHT22;2304;47.606;12.186;2024-01-15T21:43:48;1.60;63.00
4584;DHT22;2304;47.606;12.186;2024-01-15T21:48:51;1.50;62.20
4584;DHT22;2304;47.606;12.186;2024-01-15T21:53:54;1.50;62.10
4584;DHT22;2304;47.606;12.186;2024-01-15T21:58:56;1.50;61.40
4584;DHT22;2304;47.606;12.186;2024-01-15T22:04:00;1.50;61.60
4584;DHT22;2304;47.606;12.186;2024-01-15T22:09:02;1.50;61.50
4584;DHT22;2304;47.606;12.186;2024-01-15T22:14:04;1.40;61.10
4584;DHT22;2304;47.606;12.186;2024-01-15T22:19:07;1.40;60.40
4584;DHT22;2304;47.606;12.186;2024-01-15T22:24:09;1.40;60.00
4584;DHT22;2304;47.606;12.186;2024-01-15T22:29:11;1.40;59.40
4584;DHT22;2304;47.606;12.186;2024-01-15T22:34:14;1.50;60.10
4584;DHT22;2304;47.606;12.186;2024-01-15T22:39:17;1.50;59.80
4584;DHT22;2304;47.606;12.186;2024-01-15T22:44:19;1.40;58.60
4584;DHT22;2304;47.606;12.186;2024-01-15T22:49:22;1.40;59.30
4584;DHT22;2304;47.606;12.186;2024-01-15T22:54:30;1.40;58.90
4584;DHT22;2304;47.606;12.186;2024-01-15T22:59:46;1.50;57.80
4584;DHT22;2304;47.606;12.186;2024-01-15T23:04:49;1.50;58.20
4584;DHT22;2304;47.606;12.186;2024-01-15T23:09:51;1.60;58.60
4584;DHT22;2304;47.606;12.186;2024-01-15T23:14:52;1.60;58.40
4584;DHT22;2304;47.606;12.186;2024-01-15T23:19:56;1.70;58.00
4584;DHT22;2304;47.606;12.186;2024-01-15T23:24:58;1.60;57.20
4584;DHT22;2304;47.606;12.186;2024-01-15T23:30:00;1.70;57.30
4584;DHT22;2304;47.606;12.186;2024-01-15T23:35:03;1.70;57.20
4584;DHT22;2304;47.606;12.186;2024-01-15T23:40:07;1.80;57.20
4584;DHT22;2304;47.606;12.186;2024-01-15T23:45:09;1.80;57.80
4584;DHT22;2304;47.606;12.186;2024-01-15T23:50:13;1.70;57.20
4584;DHT22;2304;47.606;12.186;2024-01-15T23:55:15;1.70;56.70
